Kezdőlap
METAR-TAF:

METAR-TAF

Repülőterek :

Aktau, Kazahsztán

földrajzi szélesség: 43-52-12N, földrajzi hosszúság: 051-06E, magasság: 22 m

Jelenlegi meteorológiai megfigyelések

A jelentés 8 órával és 27 perccel ezelõtt készült, 05:00 UTC
Kelet-délkeleti szél 14 kt
Hőmérséklet 23°C
Páratartalom 33%
Légköri nyomás 1019 hPa
Látótávolság 10 km, vagy több
felhőtlen 1500 m magasságban, és nincs gomolyfelhõ

METAR: UATE 210500Z 11007MPS CAVOK 23/06 Q1019 R12/0///70 NOSIG RMK QFE762/1017

Idő: 18:27 (13:27 UTC)

Előrejelzés

A jelentés 8 órával és 20 perccel ezelõtt készült, 05:07 UTC
Az előrejelzés 21-én 06 óra UTC és 22-én 06 óra UTC között érvényes
Dél-délkeleti szél 16 kt
Látótávolság 10 km, vagy több
felhőtlen 1500 m magasságban, és nincs gomolyfelhõ
21-én 10 óra UTC és 21-én 12 óra UTC között fokozatosan kialakuló
Nyugat-délnyugati szél 10 kt

TAF: UATE 210507Z 2106/2206 15008MPS CAVOK TX28/2110Z TN18/2202Z BECMG 2110/2112 25005MPS

Meteorológiai megfigyelések és előrejelzések több, mint 4000 repülőtéren (METAR és TAF jelentéseket).

A térképen piros és sárga pontok jelzik az elérhető meteorológiai állomásokat.

Mozgassa az egeret a pont fölött, hogy megjelenjen az állomás neve.

Azután kattintson az időjárási megfigyelések és előrejelzések megtekintéséhez.

A térkép megváltoztatása: kattintson a fekete keresztel jelölt zöld gombra ráközelítéshez, a vonallal jelölt zöld gombra távolításhoz, vagy a zöld nyilakra a szomszédos térképek eléréséhez.


METAR-TAF: